Time;durP1;ratioP1;P1;durP2;ratioP2;P2;SDS_P1;SDS_P2;PMS_P1;PMS_P2;Temp;Humidity;BMP_temperature;BMP_pressure;BME280_temperature;BME280_humidity;BME280_pressure;Samples;Min_cycle;Max_cycle;Signal;HPM_P1;HPM_P2
2022/01/11 00:00:44;;;;;;;6.79;4.21;;;;;;;;;;384600;140;858784;-59
2022/01/11 00:01:46;;;;;;;7.98;4.25;;;;;;;;;;380843;136;865681;-59
2022/01/11 00:02:49;;;;;;;6.75;4.07;;;;;;;;;;383560;139;857220;-59
2022/01/11 00:03:50;;;;;;;7.61;4.45;;;;;;;;;;377413;139;858963;-59
2022/01/11 00:04:52;;;;;;;6.11;3.91;;;;;;;;;;382342;136;858851;-59
2022/01/11 00:06:12;;;;;;;5.30;3.36;;;;;;;;;;383205;136;865603;-59
2022/01/11 00:07:02;;;;;;;7.47;3.44;;;;;;;;;;379592;139;864707;-60
2022/01/11 00:08:07;;;;;;;8.82;3.57;;;;;;;;;;382255;138;857393;-59
2022/01/11 00:09:18;;;;;;;6.12;3.95;;;;;;;;;;383812;137;865752;-59
2022/01/11 00:10:14;;;;;;;6.24;3.94;;;;;;;;;;380108;140;858920;-60
2022/01/11 00:11:14;;;;;;;4.76;3.31;;;;;;;;;;379736;140;857166;-59
2022/01/11 00:12:16;;;;;;;4.71;3.25;;;;;;;;;;381185;136;857856;-59
2022/01/11 00:13:18;;;;;;;6.35;3.91;;;;;;;;;;383527;138;864788;-60
2022/01/11 00:14:19;;;;;;;5.55;2.64;;;;;;;;;;382837;140;857225;-59
2022/01/11 00:15:21;;;;;;;7.19;4.25;;;;;;;;;;382433;136;857193;-60
2022/01/11 00:16:24;;;;;;;6.09;4.36;;;;;;;;;;382157;138;867025;-60
2022/01/11 00:17:25;;;;;;;7.11;4.05;;;;;;;;;;381807;140;857262;-60
2022/01/11 00:18:27;;;;;;;10.01;4.04;;;;;;;;;;379908;136;864810;-60
2022/01/11 00:19:29;;;;;;;7.06;4.15;;;;;;;;;;383684;137;860783;-58
2022/01/11 00:20:31;;;;;;;3.39;2.33;;;;;;;;;;384802;138;857749;-58
2022/01/11 00:21:33;;;;;;;7.93;4.15;;;;;;;;;;380272;140;857409;-58
2022/01/11 00:22:48;;;;;;;6.79;3.82;;;;;;;;;;379658;136;857443;-59
2022/01/11 00:24:40;;;;;;;5.99;4.01;;;;;;;;;;379191;136;864878;-59
2022/01/11 00:25:43;;;;;;;7.64;4.24;;;;;;;;;;380817;136;864820;-59
2022/01/11 00:26:44;;;;;;;6.36;3.24;;;;;;;;;;373668;140;860757;-58
2022/01/11 00:27:46;;;;;;;4.44;2.97;;;;;;;;;;367889;140;864758;-59
2022/01/11 00:28:47;;;;;;;7.78;3.46;;;;;;;;;;367848;144;864777;-59
2022/01/11 00:29:52;;;;;;;5.83;4.23;;;;;;;;;;367950;142;863381;-59
2022/01/11 00:30:53;;;;;;;4.62;2.92;;;;;;;;;;374085;142;857266;-59
2022/01/11 00:31:58;;;;;;;4.85;3.32;;;;;;;;;;370066;143;866349;-58
2022/01/11 00:33:00;;;;;;;5.54;3.62;;;;;;;;;;376584;140;857326;-59
2022/01/11 00:34:03;;;;;;;6.36;4.09;;;;;;;;;;368904;143;864781;-58
2022/01/11 00:35:10;;;;;;;6.44;3.75;;;;;;;;;;375652;141;859170;-58
2022/01/11 00:36:11;;;;;;;8.41;4.58;;;;;;;;;;373539;140;859409;-58
2022/01/11 00:37:12;;;;;;;5.57;3.21;;;;;;;;;;375262;140;856299;-59
2022/01/11 00:38:16;;;;;;;8.06;4.30;;;;;;;;;;375687;141;857539;-58
2022/01/11 00:39:17;;;;;;;6.44;4.43;;;;;;;;;;375766;143;864693;-58
2022/01/11 00:40:19;;;;;;;5.01;3.33;;;;;;;;;;373592;140;857712;-58
2022/01/11 00:41:20;;;;;;;7.76;4.00;;;;;;;;;;376380;141;857301;-58
2022/01/11 00:42:22;;;;;;;8.33;4.04;;;;;;;;;;374977;141;860066;-59
2022/01/11 00:43:24;;;;;;;7.40;4.25;;;;;;;;;;375732;140;859443;-59
2022/01/11 00:44:26;;;;;;;5.77;3.51;;;;;;;;;;375688;140;857692;-59
2022/01/11 00:45:27;;;;;;;5.94;3.56;;;;;;;;;;372640;141;857193;-59
2022/01/11 00:46:29;;;;;;;5.30;3.66;;;;;;;;;;367407;142;860847;-59
2022/01/11 00:47:31;;;;;;;6.45;4.05;;;;;;;;;;368623;142;864750;-59
2022/01/11 00:48:33;;;;;;;6.66;3.95;;;;;;;;;;364831;145;866595;-59
2022/01/11 00:49:35;;;;;;;6.07;3.96;;;;;;;;;;365905;146;864870;-59
2022/01/11 00:50:37;;;;;;;8.77;4.14;;;;;;;;;;367409;142;857360;-59
2022/01/11 00:51:39;;;;;;;5.89;3.71;;;;;;;;;;367020;144;857233;-59
2022/01/11 00:52:40;;;;;;;7.81;3.79;;;;;;;;;;362982;146;857218;-59
2022/01/11 00:53:42;;;;;;;5.83;3.64;;;;;;;;;;374039;141;865863;-59
2022/01/11 00:54:43;;;;;;;5.54;3.29;;;;;;;;;;374728;140;865310;-60
2022/01/11 00:55:47;;;;;;;5.69;3.47;;;;;;;;;;365159;143;861331;-59
2022/01/11 00:56:48;;;;;;;3.77;3.04;;;;;;;;;;366190;145;862713;-59
2022/01/11 00:57:50;;;;;;;5.54;3.80;;;;;;;-4.49;94.76;151885.38;365614;143;866500;-58
2022/01/11 00:58:52;;;;;;;4.57;3.01;;;;;;;;;;375003;141;866686;-58
2022/01/11 00:59:53;;;;;;;3.92;2.83;;;;;;;;;;374526;141;859221;-58
2022/01/11 01:00:55;;;;;;;7.11;3.49;;;;;;;;;;370917;142;863504;-58
2022/01/11 01:01:57;;;;;;;5.50;3.60;;;;;;;;;;368943;143;859023;-59
2022/01/11 01:02:59;;;;;;;6.28;3.48;;;;;;;;;;376683;141;857735;-58
2022/01/11 01:04:01;;;;;;;6.70;3.92;;;;;;;;;;366281;144;858917;-58
2022/01/11 01:05:03;;;;;;;5.51;3.31;;;;;;;;;;370773;141;857621;-58
2022/01/11 01:06:05;;;;;;;5.72;3.12;;;;;;;;;;373908;142;859338;-58
2022/01/11 01:07:06;;;;;;;5.24;3.39;;;;;;;;;;370060;141;857139;-58
2022/01/11 01:08:08;;;;;;;4.41;3.19;;;;;;;;;;375603;141;866510;-59
2022/01/11 01:09:10;;;;;;;5.57;3.69;;;;;;;;;;368385;144;857235;-61
2022/01/11 01:10:29;;;;;;;4.44;3.30;;;;;;;;;;376544;141;865850;-61
2022/01/11 01:11:30;;;;;;;4.94;3.16;;;;;;;;;;376336;140;857341;-60
2022/01/11 01:12:33;;;;;;;6.79;4.09;;;;;;;;;;374519;141;859876;-59
2022/01/11 01:13:34;;;;;;;4.28;2.94;;;;;;;;;;374346;141;864870;-59
2022/01/11 01:14:36;;;;;;;5.51;3.43;;;;;;;;;;375881;141;857309;-59
2022/01/11 01:15:37;;;;;;;5.00;3.50;;;;;;;;;;367718;145;863814;-59
2022/01/11 01:16:39;;;;;;;6.17;3.61;;;;;;;;;;366926;144;863797;-59
2022/01/11 01:17:40;;;;;;;6.14;3.69;;;;;;;;;;369096;144;864950;-59
2022/01/11 01:18:42;;;;;;;6.09;3.76;;;;;;;;;;367428;142;864927;-59
2022/01/11 01:19:43;;;;;;;4.61;3.14;;;;;;;;;;368387;145;860474;-59
2022/01/11 01:20:45;;;;;;;4.43;2.75;;;;;;;;;;367171;143;857201;-59
2022/01/11 01:21:49;;;;;;;5.68;3.15;;;;;;;;;;368241;142;864933;-58
2022/01/11 01:22:51;;;;;;;5.67;4.06;;;;;;;;;;367246;143;857265;-59
2022/01/11 01:23:52;;;;;;;5.76;3.46;;;;;;;;;;365345;144;857290;-61
2022/01/11 01:24:54;;;;;;;5.36;3.45;;;;;;;;;;369566;143;865565;-60
2022/01/11 01:25:55;;;;;;;5.90;3.49;;;;;;;;;;369608;144;857232;-60
2022/01/11 01:26:57;;;;;;;6.56;3.79;;;;;;;;;;370939;143;865501;-61
2022/01/11 01:27:58;;;;;;;7.14;4.69;;;;;;;;;;369365;141;866043;-61
2022/01/11 01:29:00;;;;;;;5.00;3.64;;;;;;;;;;368761;145;866201;-60
2022/01/11 01:30:03;;;;;;;7.51;3.61;;;;;;;;;;377188;139;858302;-59
2022/01/11 01:31:04;;;;;;;6.33;2.98;;;;;;;;;;379344;139;857943;-59
2022/01/11 01:32:07;;;;;;;6.76;3.29;;;;;;;;;;372876;139;866544;-61
2022/01/11 01:33:08;;;;;;;5.49;3.07;;;;;;;;;;369329;142;865726;-60
2022/01/11 01:34:10;;;;;;;5.49;3.80;;;;;;;;;;371053;145;859056;-61
2022/01/11 01:35:12;;;;;;;6.34;4.13;;;;;;;;;;376860;142;857712;-59
2022/01/11 01:36:14;;;;;;;5.42;3.41;;;;;;;;;;374837;139;864764;-59
2022/01/11 01:37:16;;;;;;;5.68;3.86;;;;;;;;;;375861;140;857577;-59
2022/01/11 01:38:22;;;;;;;5.41;3.87;;;;;;;;;;377054;141;864879;-61
2022/01/11 01:39:21;;;;;;;3.87;3.08;;;;;;;;;;374321;139;865490;-60
2022/01/11 01:40:23;;;;;;;7.49;4.00;;;;;;;;;;376483;140;857218;-59
2022/01/11 01:41:26;;;;;;;7.17;3.47;;;;;;;;;;375994;142;857634;-59
2022/01/11 01:42:30;;;;;;;4.67;3.23;;;;;;;;;;375932;140;857360;-59
2022/01/11 01:43:31;;;;;;;7.72;4.08;;;;;;;;;;376252;139;857218;-60
2022/01/11 01:44:33;;;;;;;5.24;3.42;;;;;;;;;;376594;140;866162;-59
2022/01/11 01:45:35;;;;;;;8.88;4.65;;;;;;;;;;375655;142;865029;-59
2022/01/11 01:46:37;;;;;;;6.90;4.25;;;;;;;;;;375327;139;857341;-59
2022/01/11 01:47:38;;;;;;;7.54;4.01;;;;;;;;;;375155;139;856397;-59
2022/01/11 01:48:40;;;;;;;6.01;3.84;;;;;;;;;;376306;141;863792;-59
2022/01/11 01:49:42;;;;;;;7.73;4.28;;;;;;;;;;374334;139;866580;-58
2022/01/11 01:50:43;;;;;;;7.53;4.25;;;;;;;;;;376977;139;864776;-59
2022/01/11 01:51:45;;;;;;;7.66;3.70;;;;;;;;;;374357;140;857435;-59
2022/01/11 01:52:47;;;;;;;9.17;3.81;;;;;;;;;;372053;142;859026;-59
2022/01/11 01:53:49;;;;;;;4.80;3.56;;;;;;;;;;370007;141;857439;-59
2022/01/11 01:54:51;;;;;;;7.70;4.91;;;;;;;;;;370072;142;864714;-58
2022/01/11 01:55:52;;;;;;;5.77;3.33;;;;;;;;;;376412;142;859110;-58
2022/01/11 01:56:54;;;;;;;6.41;4.35;;;;;;;;;;372262;141;857970;-58
2022/01/11 01:57:56;;;;;;;8.74;3.99;;;;;;;;;;371294;143;857063;-58
2022/01/11 01:58:57;;;;;;;6.21;4.11;;;;;;;;;;372113;143;857299;-59
2022/01/11 02:00:03;;;;;;;5.64;4.01;;;;;;;;;;370319;141;858728;-59
2022/01/11 02:01:04;;;;;;;5.46;3.60;;;;;;;;;;377696;140;861607;-59
2022/01/11 02:02:07;;;;;;;7.47;4.06;;;;;;;;;;373621;141;859627;-60
2022/01/11 02:03:11;;;;;;;7.87;4.77;;;;;;;;;;363831;145;857282;-60
2022/01/11 02:04:13;;;;;;;7.75;4.59;;;;;;;;;;376929;139;864997;-60
2022/01/11 02:05:15;;;;;;;9.01;4.68;;;;;;;;;;377101;140;857203;-60
2022/01/11 02:06:18;;;;;;;6.28;4.24;;;;;;;;;;377761;140;858993;-59
2022/01/11 02:07:20;;;;;;;4.70;3.53;;;;;;;;;;377482;139;858137;-59
2022/01/11 02:08:21;;;;;;;6.71;4.18;;;;;;;;;;378205;140;857389;-59
2022/01/11 02:09:23;;;;;;;8.54;5.48;;;;;;;;;;373295;142;864751;-59
2022/01/11 02:10:26;;;;;;;7.89;4.57;;;;;;;;;;367430;145;864757;-59
2022/01/11 02:11:27;;;;;;;5.79;3.84;;;;;;;;;;368255;142;857864;-59
2022/01/11 02:12:29;;;;;;;6.87;4.22;;;;;;;;;;375306;139;864882;-59
2022/01/11 02:13:30;;;;;;;7.51;4.56;;;;;;;;;;375901;141;860133;-58
2022/01/11 02:14:32;;;;;;;5.76;3.94;;;;;;;;;;370750;140;863920;-59
2022/01/11 02:15:33;;;;;;;6.03;3.60;;;;;;;;;;370691;144;857622;-59
2022/01/11 02:16:35;;;;;;;6.96;4.26;;;;;;;;;;368366;141;857344;-59
2022/01/11 02:17:38;;;;;;;6.75;4.16;;;;;;;;;;370171;143;857353;-60
2022/01/11 02:18:45;;;;;;;7.03;4.37;;;;;;;;;;370334;145;856344;-59
2022/01/11 02:19:46;;;;;;;7.90;4.31;;;;;;;;;;370423;144;858472;-58
2022/01/11 02:20:49;;;;;;;6.37;4.81;;;;;;;;;;366546;145;857646;-59
2022/01/11 02:21:51;;;;;;;6.37;4.53;;;;;;;;;;369770;141;858835;-58
2022/01/11 02:22:53;;;;;;;4.95;3.41;;;;;;;;;;371039;144;858607;-59
2022/01/11 02:23:55;;;;;;;5.73;3.54;;;;;;;;;;368004;144;864764;-59
2022/01/11 02:24:56;;;;;;;4.11;2.71;;;;;;;;;;378240;139;861516;-59
2022/01/11 02:25:58;;;;;;;6.37;4.11;;;;;;;;;;376660;140;857185;-60
2022/01/11 02:26:59;;;;;;;6.82;4.53;;;;;;;;;;386900;136;864791;-59
2022/01/11 02:28:01;;;;;;;6.48;3.96;;;;;;;;;;386992;136;857278;-59
2022/01/11 02:29:03;;;;;;;6.66;3.96;;;;;;;;;;384853;136;864734;-61
2022/01/11 02:30:05;;;;;;;6.47;4.15;;;;;;;;;;386332;138;864755;-60
2022/01/11 02:31:12;;;;;;;7.45;4.09;;;;;;;;;;381323;138;857175;-60
2022/01/11 02:32:10;;;;;;;6.72;4.40;;;;;;;;;;383657;136;858729;-60
2022/01/11 02:33:28;;;;;;;6.56;4.05;;;;;;;;;;383898;139;857241;-61
2022/01/11 02:34:18;;;;;;;5.93;3.77;;;;;;;;;;381611;139;864776;-59
2022/01/11 02:35:19;;;;;;;7.28;3.98;;;;;;;;;;383373;136;857222;-59
2022/01/11 02:36:24;;;;;;;7.97;4.72;;;;;;;;;;384690;138;857764;-59
2022/01/11 02:37:25;;;;;;;5.96;4.17;;;;;;;;;;386139;138;857336;-59
2022/01/11 02:38:27;;;;;;;6.58;4.37;;;;;;;;;;383614;138;859518;-59
2022/01/11 02:39:29;;;;;;;4.77;3.51;;;;;;;;;;383791;136;865490;-59
2022/01/11 02:40:31;;;;;;;5.98;3.41;;;;;;;;;;385040;138;857866;-60
2022/01/11 02:41:33;;;;;;;6.48;4.35;;;;;;;;;;386520;138;857948;-60
2022/01/11 02:42:34;;;;;;;7.09;4.34;;;;;;;;;;382838;136;864844;-59
2022/01/11 02:43:38;;;;;;;9.39;4.23;;;;;;;;;;381980;138;864787;-59
2022/01/11 02:44:39;;;;;;;7.08;4.12;;;;;;;;;;385133;136;859905;-59
2022/01/11 02:45:41;;;;;;;6.83;4.49;;;;;;;;;;377320;139;856895;-59
2022/01/11 02:46:43;;;;;;;6.44;3.60;;;;;;;;;;383932;136;864749;-59
2022/01/11 02:47:45;;;;;;;7.46;4.17;;;;;;;;;;383724;139;864558;-60
2022/01/11 02:48:47;;;;;;;7.16;4.15;;;;;;;;;;386485;138;864828;-59
2022/01/11 02:49:49;;;;;;;7.91;4.50;;;;;;;;;;384879;136;857236;-59
2022/01/11 02:50:51;;;;;;;8.09;4.01;;;;;;;;;;381267;138;857216;-59
2022/01/11 02:51:53;;;;;;;6.71;4.40;;;;;;;;;;383040;138;857194;-59
2022/01/11 02:52:55;;;;;;;5.96;4.00;;;;;;;;;;385826;136;861737;-59
2022/01/11 02:53:59;;;;;;;7.21;4.14;;;;;;;;;;383936;136;857133;-59
2022/01/11 02:55:00;;;;;;;8.98;5.09;;;;;;;;;;382949;136;857202;-56
2022/01/11 02:56:01;;;;;;;7.06;4.29;;;;;;;;;;380896;136;860226;-59
2022/01/11 02:57:03;;;;;;;7.70;4.73;;;;;;;;;;386002;136;856435;-59
2022/01/11 02:58:05;;;;;;;6.37;3.94;;;;;;;;;;386004;138;861786;-59
2022/01/11 02:59:06;;;;;;;7.03;4.44;;;;;;;;;;365920;141;866350;-59
2022/01/11 03:00:10;;;;;;;8.55;4.43;;;;;;;;;;382134;136;858870;-59
2022/01/11 03:01:11;;;;;;;5.62;4.41;;;;;;;;;;385276;138;858754;-59
2022/01/11 03:02:13;;;;;;;5.74;3.33;;;;;;;;;;385486;138;858328;-59
2022/01/11 03:03:17;;;;;;;8.35;4.66;;;;;;;;;;385601;136;864705;-59
2022/01/11 03:04:19;;;;;;;6.00;4.70;;;;;;;;;;382698;136;857203;-58
2022/01/11 03:05:21;;;;;;;6.81;4.93;;;;;;;;;;384925;138;859899;-59
2022/01/11 03:06:23;;;;;;;8.77;4.59;;;;;;;;;;386700;138;864775;-59
2022/01/11 03:07:24;;;;;;;6.08;4.16;;;;;;;;;;385940;136;857834;-59
2022/01/11 03:08:27;;;;;;;5.54;3.70;;;;;;;;;;384356;137;865669;-59
2022/01/11 03:09:34;;;;;;;8.73;5.07;;;;;;;;;;382538;139;865985;-59
2022/01/11 03:10:36;;;;;;;7.29;4.96;;;;;;;;;;381571;136;858037;-58
2022/01/11 03:11:35;;;;;;;6.93;4.43;;;;;;;;;;383759;138;866569;-59
2022/01/11 03:12:37;;;;;;;7.16;4.48;;;;;;;;;;381457;136;865455;-60
2022/01/11 03:13:40;;;;;;;8.29;4.10;;;;;;;;;;383847;139;863978;-59
2022/01/11 03:14:42;;;;;;;6.82;3.89;;;;;;;;;;383412;139;859954;-60
2022/01/11 03:15:44;;;;;;;5.79;3.79;;;;;;;;;;383275;138;855964;-60
2022/01/11 03:16:45;;;;;;;9.83;4.41;;;;;;;;;;380911;138;865641;-60
2022/01/11 03:17:47;;;;;;;7.08;4.42;;;;;;;;;;382576;136;859966;-60
2022/01/11 03:18:48;;;;;;;7.66;4.34;;;;;;;;;;383819;138;864937;-61
2022/01/11 03:19:50;;;;;;;7.57;4.15;;;;;;;;;;382866;137;861811;-60
2022/01/11 03:20:52;;;;;;;6.26;4.35;;;;;;;;;;381025;136;864750;-60
2022/01/11 03:21:53;;;;;;;8.03;4.13;;;;;;;;;;383006;136;864665;-61
2022/01/11 03:22:55;;;;;;;7.04;4.44;;;;;;;;;;384387;139;857164;-60
2022/01/11 03:23:57;;;;;;;8.04;4.34;;;;;;;;;;381824;137;866263;-59
2022/01/11 03:24:59;;;;;;;7.20;4.50;;;;;;;;;;375276;139;866476;-60
2022/01/11 03:26:02;;;;;;;7.27;4.41;;;;;;;;;;382611;139;857391;-59
2022/01/11 03:27:06;;;;;;;5.06;3.89;;;;;;;;;;374948;142;862345;-60
2022/01/11 03:28:08;;;;;;;5.11;3.85;;;;;;;;;;384183;136;857593;-63
2022/01/11 03:29:09;;;;;;;5.88;3.91;;;;;;;;;;384759;139;857297;-59
2022/01/11 03:30:12;;;;;;;6.84;4.37;;;;;;;;;;384996;138;865425;-60
2022/01/11 03:31:14;;;;;;;5.99;3.79;;;;;;;;;;385310;138;859236;-59
2022/01/11 03:32:18;;;;;;;6.41;4.12;;;;;;;;;;384837;136;866202;-59
2022/01/11 03:33:19;;;;;;;8.16;4.44;;;;;;;;;;383904;139;865599;-59
2022/01/11 03:34:20;;;;;;;8.30;4.39;;;;;;;;;;384658;140;857135;-59
2022/01/11 03:35:23;;;;;;;6.36;4.32;;;;;;;;;;383864;136;864994;-59
2022/01/11 03:36:25;;;;;;;7.34;4.58;;;;;;;;;;385610;138;860622;-59
2022/01/11 03:37:26;;;;;;;6.11;4.35;;;;;;;;;;381284;139;857227;-59
2022/01/11 03:38:30;;;;;;;5.42;3.40;;;;;;;;;;384488;136;865528;-60
2022/01/11 03:39:32;;;;;;;8.04;4.61;;;;;;;;;;384087;136;864841;-60
2022/01/11 03:40:34;;;;;;;6.96;4.19;;;;;;;;;;375249;139;859062;-60
2022/01/11 03:41:36;;;;;;;6.31;3.87;;;;;;;;;;380796;136;858919;-59
2022/01/11 03:42:38;;;;;;;8.69;4.77;;;;;;;;;;381470;136;856809;-59
2022/01/11 03:43:39;;;;;;;7.35;4.36;;;;;;;;;;383014;138;864111;-59
2022/01/11 03:44:41;;;;;;;8.59;4.42;;;;;;;;;;385648;139;863856;-59
2022/01/11 03:45:43;;;;;;;6.50;4.66;;;;;;;;;;382928;136;856007;-60
2022/01/11 03:46:44;;;;;;;6.74;4.16;;;;;;;;;;385364;138;866095;-60
2022/01/11 03:47:46;;;;;;;6.87;4.49;;;;;;;;;;383389;139;866090;-59
2022/01/11 03:48:47;;;;;;;6.86;4.74;;;;;;;;;;382429;136;865743;-59
2022/01/11 03:49:49;;;;;;;8.01;4.69;;;;;;;;;;384874;136;866404;-59
2022/01/11 03:50:55;;;;;;;7.61;5.02;;;;;;;;;;381277;138;865647;-59
2022/01/11 03:51:57;;;;;;;7.28;4.54;;;;;;;;;;384862;139;857566;-60
2022/01/11 03:53:06;;;;;;;5.63;3.79;;;;;;;;;;384340;136;858708;-58
2022/01/11 03:54:09;;;;;;;8.49;4.17;;;;;;;;;;381403;138;864889;-60
2022/01/11 03:55:11;;;;;;;8.01;4.79;;;;;;;;;;386317;139;864843;-60
2022/01/11 03:56:21;;;;;;;6.71;4.32;;;;;;;;;;382701;136;858225;-61
2022/01/11 03:57:14;;;;;;;5.79;3.94;;;;;;;;;;382195;139;857607;-59
2022/01/11 03:58:15;;;;;;;6.51;4.21;;;;;;;;;;382759;139;857215;-58
2022/01/11 03:59:17;;;;;;;6.99;3.87;;;;;;;;;;382250;136;864733;-60
2022/01/11 04:00:19;;;;;;;8.76;4.65;;;;;;;;;;383048;136;866593;-58
2022/01/11 04:01:22;;;;;;;6.63;4.30;;;;;;;;;;385341;138;858934;-59
2022/01/11 04:02:24;;;;;;;6.41;3.80;;;;;;;;;;384561;138;864754;-59
2022/01/11 04:03:25;;;;;;;6.41;4.21;;;;;;;;;;386232;136;864862;-59
2022/01/11 04:04:27;;;;;;;5.74;3.71;;;;;;;;;;384640;139;857638;-59
2022/01/11 04:05:29;;;;;;;5.69;4.11;;;;;;;;;;381868;136;863106;-58
2022/01/11 04:06:30;;;;;;;7.54;3.60;;;;;;;;;;384405;136;864676;-62
2022/01/11 04:07:32;;;;;;;6.61;4.40;;;;;;;;;;385269;138;864942;-61
2022/01/11 04:08:33;;;;;;;6.74;4.13;;;;;;;;;;381500;138;860160;-60
2022/01/11 04:09:35;;;;;;;6.52;4.40;;;;;;;;;;384425;136;858707;-62
2022/01/11 04:10:37;;;;;;;7.83;4.92;;;;;;;;;;384891;136;863273;-61
2022/01/11 04:11:38;;;;;;;8.14;4.40;;;;;;;;;;384544;138;856366;-61
2022/01/11 04:12:40;;;;;;;9.37;4.62;;;;;;;;;;374822;142;865776;-62
2022/01/11 04:13:41;;;;;;;7.74;4.23;;;;;;;;;;384065;136;866281;-60
2022/01/11 04:14:43;;;;;;;9.14;4.29;;;;;;;;;;381584;139;861698;-60
2022/01/11 04:15:45;;;;;;;6.08;4.43;;;;;;;;;;383111;136;864667;-59
2022/01/11 04:16:46;;;;;;;6.00;4.21;;;;;;;;;;383921;136;857757;-60
2022/01/11 04:17:48;;;;;;;7.37;4.50;;;;;;;;;;384811;136;864796;-60
2022/01/11 04:18:49;;;;;;;9.20;4.66;;;;;;;;;;386024;138;860870;-59
2022/01/11 04:19:52;;;;;;;7.05;4.47;;;;;;;;;;386040;139;860089;-59
2022/01/11 04:20:54;;;;;;;7.51;4.88;;;;;;;;;;382397;136;864777;-59
2022/01/11 04:21:56;;;;;;;7.25;4.56;;;;;;;;;;384366;138;857208;-58
2022/01/11 04:22:57;;;;;;;7.34;4.43;;;;;;;;;;381241;136;865936;-59
2022/01/11 04:23:59;;;;;;;6.33;4.24;;;;;;;;;;388893;136;864849;-59
2022/01/11 04:25:01;;;;;;;5.79;4.45;;;;;;;;;;384667;136;863153;-59
2022/01/11 04:26:02;;;;;;;7.93;4.43;;;;;;;;;;380762;136;857247;-58
2022/01/11 04:27:05;;;;;;;6.95;4.25;;;;;;;;;;383231;139;866719;-59
2022/01/11 04:28:06;;;;;;;8.14;4.28;;;;;;;;;;382114;136;857201;-59
2022/01/11 04:29:08;;;;;;;8.61;4.78;;;;;;;;;;380486;138;858605;-59
2022/01/11 04:30:10;;;;;;;8.68;4.85;;;;;;;;;;386284;139;864796;-59
2022/01/11 04:31:12;;;;;;;8.19;4.65;;;;;;;;;;383643;136;856346;-59
2022/01/11 04:32:13;;;;;;;7.05;4.61;;;;;;;;;;384114;138;858732;-60
2022/01/11 04:33:15;;;;;;;8.01;3.87;;;;;;;;;;384833;139;865139;-60
2022/01/11 04:34:17;;;;;;;8.56;4.59;;;;;;;;;;383988;136;858715;-59
2022/01/11 04:35:18;;;;;;;5.89;4.50;;;;;;;;;;384625;136;863850;-60
2022/01/11 04:36:20;;;;;;;7.51;4.19;;;;;;;;;;381509;136;865262;-59
2022/01/11 04:37:22;;;;;;;7.03;4.15;;;;;;;;;;383757;139;857143;-58
2022/01/11 04:38:25;;;;;;;7.99;5.10;;;;;;;;;;381930;136;864908;-59
2022/01/11 04:39:26;;;;;;;7.73;3.98;;;;;;;;;;382417;138;866468;-58
2022/01/11 04:40:28;;;;;;;3.83;2.79;;;;;;;;;;384977;138;857174;-59
2022/01/11 04:41:30;;;;;;;6.31;3.76;;;;;;;;;;384127;136;864813;-59
2022/01/11 04:42:31;;;;;;;6.16;3.95;;;;;;;;;;384547;138;860108;-59
2022/01/11 04:43:33;;;;;;;8.12;4.69;;;;;;;;;;386371;138;866570;-59
2022/01/11 04:44:34;;;;;;;6.74;4.09;;;;;;;;;;385679;136;866578;-60
2022/01/11 04:45:36;;;;;;;6.16;4.24;;;;;;;;;;382410;136;859760;-60
2022/01/11 04:46:38;;;;;;;6.88;4.39;;;;;;;;;;383134;138;856566;-59
2022/01/11 04:47:39;;;;;;;6.54;4.06;;;;;;;;;;382832;139;864319;-59
2022/01/11 04:48:41;;;;;;;6.69;4.14;;;;;;;;;;382366;136;863710;-59
2022/01/11 04:49:42;;;;;;;8.39;3.91;;;;;;;;;;383655;138;864775;-59
2022/01/11 04:50:45;;;;;;;7.01;4.43;;;;;;;;;;382029;139;860086;-59
2022/01/11 04:51:47;;;;;;;6.41;3.93;;;;;;;;;;383591;136;864788;-58
2022/01/11 04:52:48;;;;;;;8.67;4.60;;;;;;;;;;385630;136;857240;-58
2022/01/11 04:53:50;;;;;;;8.24;4.06;;;;;;;;;;384112;139;865272;-58
2022/01/11 04:54:51;;;;;;;7.05;4.42;;;;;;;;;;385023;139;864808;-58
2022/01/11 04:55:54;;;;;;;4.80;3.52;;;;;;;;;;383592;136;857188;-59
2022/01/11 04:56:56;;;;;;;5.57;3.80;;;;;;;;;;384921;138;861786;-61
2022/01/11 04:57:57;;;;;;;6.05;3.17;;;;;;;;;;385369;138;857365;-62
2022/01/11 04:58:59;;;;;;;5.75;3.99;;;;;;;;;;383720;136;857191;-58
2022/01/11 05:00:01;;;;;;;11.19;4.46;;;;;;;;;;383201;138;857238;-58
2022/01/11 05:01:02;;;;;;;7.07;4.01;;;;;;;;;;380414;136;866671;-59
2022/01/11 05:02:04;;;;;;;8.31;4.09;;;;;;;;;;386220;136;859526;-60
2022/01/11 05:03:06;;;;;;;5.73;3.62;;;;;;;;;;380201;136;857406;-60
2022/01/11 05:04:08;;;;;;;6.77;4.31;;;;;;;;;;385898;136;857299;-58
2022/01/11 05:05:09;;;;;;;6.89;3.53;;;;;;;;;;383661;139;862738;-59
2022/01/11 05:06:13;;;;;;;6.54;4.11;;;;;;;;;;382304;136;856867;-56
2022/01/11 05:07:14;;;;;;;6.81;3.89;;;;;;;;;;384762;136;857049;-59
2022/01/11 05:08:16;;;;;;;5.98;3.57;;;;;;;;;;383562;136;858517;-63
2022/01/11 05:09:17;;;;;;;6.39;3.55;;;;;;;;;;383865;136;865346;-62
2022/01/11 05:10:21;;;;;;;5.21;3.51;;;;;;;;;;382582;136;860017;-60
2022/01/11 05:11:22;;;;;;;5.48;4.15;;;;;;;;;;380871;136;857599;-60
2022/01/11 05:12:24;;;;;;;6.46;3.72;;;;;;;;;;386384;136;857579;-61
2022/01/11 05:13:26;;;;;;;5.49;3.42;;;;;;;;;;384271;136;864873;-60
2022/01/11 05:14:27;;;;;;;5.46;3.50;;;;;;;;;;385039;138;861094;-61
2022/01/11 05:15:29;;;;;;;5.56;3.26;;;;;;;;;;382693;136;858954;-59
2022/01/11 05:16:30;;;;;;;5.71;3.80;;;;;;;;;;375310;139;858865;-60
2022/01/11 05:17:32;;;;;;;4.12;3.10;;;;;;;;;;376496;141;856349;-58
2022/01/11 05:18:36;;;;;;;5.32;3.89;;;;;;;;;;382042;136;866569;-60
2022/01/11 05:19:37;;;;;;;6.01;3.42;;;;;;;;;;380349;136;864822;-59
2022/01/11 05:20:39;;;;;;;5.01;3.85;;;;;;;;;;383042;136;856447;-59
2022/01/11 05:21:40;;;;;;;4.13;3.15;;;;;;;;;;384791;136;864043;-59
2022/01/11 05:22:44;;;;;;;4.26;3.39;;;;;;;;;;378462;140;859271;-61
2022/01/11 05:23:46;;;;;;;5.88;4.16;;;;;;;;;;380352;136;856070;-60
2022/01/11 05:24:47;;;;;;;4.96;3.40;;;;;;;;;;385863;138;863510;-59
2022/01/11 05:25:49;;;;;;;7.68;4.46;;;;;;;;;;384708;139;866422;-60
2022/01/11 05:26:50;;;;;;;5.81;3.63;;;;;;;;;;384609;136;857822;-59
2022/01/11 05:27:52;;;;;;;5.13;3.38;;;;;;;;;;384838;136;866979;-61
2022/01/11 05:28:53;;;;;;;5.12;3.43;;;;;;;;;;386089;137;864044;-59
2022/01/11 05:29:55;;;;;;;3.72;2.72;;;;;;;;;;386879;138;863217;-59
2022/01/11 05:30:57;;;;;;;5.94;3.55;;;;;;;;;;385758;135;865268;-58
2022/01/11 05:31:58;;;;;;;5.89;3.34;;;;;;;;;;384881;136;865733;-58
2022/01/11 05:33:00;;;;;;;4.61;3.19;;;;;;;;;;384508;138;863717;-57
2022/01/11 05:34:02;;;;;;;4.36;2.94;;;;;;;;;;384267;135;862214;-59
2022/01/11 05:35:04;;;;;;;4.11;2.81;;;;;;;;;;385942;139;863576;-59
2022/01/11 05:36:05;;;;;;;4.66;3.30;;;;;;;;;;386008;135;856072;-59
2022/01/11 05:37:07;;;;;;;3.64;2.32;;;;;;;;;;385691;135;856067;-58
2022/01/11 05:38:08;;;;;;;4.11;3.39;;;;;;;;;;384320;135;860671;-58
2022/01/11 05:39:10;;;;;;;5.80;3.66;;;;;;;;;;384767;139;859821;-61
2022/01/11 05:40:13;;;;;;;5.45;3.49;;;;;;;;;;381901;136;866516;-59
2022/01/11 05:41:14;;;;;;;5.26;2.85;;;;;;;;;;384162;136;857207;-60
2022/01/11 05:42:36;;;;;;;4.63;3.47;;;;;;;;;;382597;137;857780;-59
2022/01/11 05:43:38;;;;;;;4.12;2.66;;;;;;;;;;380668;139;857381;-58
2022/01/11 05:44:39;;;;;;;4.19;3.03;;;;;;;;;;380320;137;856392;-59
2022/01/11 05:45:41;;;;;;;5.67;3.21;;;;;;;;;;381557;138;863899;-59
2022/01/11 05:46:43;;;;;;;5.43;3.69;;;;;;;;;;381808;140;865355;-59
2022/01/11 05:47:45;;;;;;;5.48;3.21;;;;;;;;;;379717;137;858001;-59
2022/01/11 05:48:47;;;;;;;4.12;2.89;;;;;;;;;;372800;140;864663;-58
2022/01/11 05:49:49;;;;;;;3.98;2.91;;;;;;;;;;373567;140;859213;-59
2022/01/11 05:50:51;;;;;;;4.69;3.43;;;;;;;;;;373164;143;864704;-60
2022/01/11 05:51:52;;;;;;;4.64;3.37;;;;;;;;;;377561;137;857173;-60
2022/01/11 05:52:54;;;;;;;6.34;3.52;;;;;;;;;;380831;137;864907;-59
2022/01/11 05:53:56;;;;;;;4.66;3.39;;;;;;;;;;380086;140;862733;-59
2022/01/11 05:54:57;;;;;;;5.72;3.31;;;;;;;;;;381662;137;865817;-59
2022/01/11 05:55:59;;;;;;;3.80;3.25;;;;;;;;;;380126;139;866052;-59
2022/01/11 05:57:01;;;;;;;5.07;3.61;;;;;;;;;;381164;139;857261;-59
2022/01/11 05:58:02;;;;;;;8.41;3.71;;;;;;;;;;380075;137;864758;-59
2022/01/11 05:59:04;;;;;;;5.21;3.74;;;;;;;;;;380840;137;864768;-60
2022/01/11 06:00:06;;;;;;;5.39;3.53;;;;;;;;;;380089;139;865736;-59
2022/01/11 06:01:08;;;;;;;6.22;3.86;;;;;;;;;;377800;137;857316;-59
2022/01/11 06:02:10;;;;;;;7.22;4.02;;;;;;;;;;374455;140;858779;-59
2022/01/11 06:03:11;;;;;;;6.18;3.57;;;;;;;;;;374658;142;864939;-60
2022/01/11 06:04:13;;;;;;;6.02;3.91;;;;;;;;;;375856;142;863636;-60
2022/01/11 06:05:16;;;;;;;16.69;8.00;;;;;;;;;;374552;140;863571;-58
2022/01/11 06:06:18;;;;;;;8.17;4.32;;;;;;;;;;374782;140;864979;-58
2022/01/11 06:07:20;;;;;;;57.01;20.78;;;;;;;;;;371181;140;856558;-58